sensor_id;sensor_type;location;lat;lon;timestamp;pressure;altitude;pressure_sealevel;temperature;humidity
62710;BME280;48770;51.624;5.886;2023-02-28T00:00:25;102938.09;;;19.79;37.19
62710;BME280;48770;51.624;5.886;2023-02-28T00:02:51;102938.34;;;19.78;37.23
62710;BME280;48770;51.624;5.886;2023-02-28T00:05:19;102942.00;;;19.78;37.22
62710;BME280;48770;51.624;5.886;2023-02-28T00:07:45;102931.44;;;19.75;37.10
62710;BME280;48770;51.624;5.886;2023-02-28T00:10:15;102941.44;;;19.76;37.21
62710;BME280;48770;51.624;5.886;2023-02-28T00:12:40;102933.69;;;19.73;37.22
62710;BME280;48770;51.624;5.886;2023-02-28T00:15:08;102943.97;;;19.73;36.92
62710;BME280;48770;51.624;5.886;2023-02-28T00:17:34;102942.31;;;19.71;37.06
62710;BME280;48770;51.624;5.886;2023-02-28T00:19:59;102941.50;;;19.71;37.01
62710;BME280;48770;51.624;5.886;2023-02-28T00:22:28;102927.06;;;19.69;37.10
62710;BME280;48770;51.624;5.886;2023-02-28T00:24:53;102933.22;;;19.66;37.24
62710;BME280;48770;51.624;5.886;2023-02-28T00:27:19;102929.63;;;19.65;36.96
62710;BME280;48770;51.624;5.886;2023-02-28T00:29:46;102936.00;;;19.66;37.12
62710;BME280;48770;51.624;5.886;2023-02-28T00:32:11;102930.75;;;19.64;37.22
62710;BME280;48770;51.624;5.886;2023-02-28T00:34:36;102931.03;;;19.63;37.07
62710;BME280;48770;51.624;5.886;2023-02-28T00:37:07;102924.66;;;19.62;37.10
62710;BME280;48770;51.624;5.886;2023-02-28T00:39:34;102935.75;;;19.62;36.99
62710;BME280;48770;51.624;5.886;2023-02-28T00:42:00;102933.28;;;19.61;37.14
62710;BME280;48770;51.624;5.886;2023-02-28T00:44:25;102925.25;;;19.59;37.15
62710;BME280;48770;51.624;5.886;2023-02-28T00:46:50;102928.31;;;19.58;37.20
62710;BME280;48770;51.624;5.886;2023-02-28T00:49:17;102924.72;;;19.57;36.89
62710;BME280;48770;51.624;5.886;2023-02-28T00:51:42;102935.81;;;19.57;37.03
62710;BME280;48770;51.624;5.886;2023-02-28T00:54:07;102938.88;;;19.56;37.19
62710;BME280;48770;51.624;5.886;2023-02-28T00:56:33;102940.00;;;19.55;37.27
62710;BME280;48770;51.624;5.886;2023-02-28T00:58:58;102939.19;;;19.54;37.03
62710;BME280;48770;51.624;5.886;2023-02-28T01:01:23;102945.00;;;19.53;37.25
62710;BME280;48770;51.624;5.886;2023-02-28T01:03:49;102943.34;;;19.52;37.03
62710;BME280;48770;51.624;5.886;2023-02-28T01:06:14;102948.03;;;19.51;37.21
62710;BME280;48770;51.624;5.886;2023-02-28T01:08:39;102941.66;;;19.51;37.02
62710;BME280;48770;51.624;5.886;2023-02-28T01:11:10;102955.53;;;19.51;37.04
62710;BME280;48770;51.624;5.886;2023-02-28T01:13:35;102954.69;;;19.50;36.99
62710;BME280;48770;51.624;5.886;2023-02-28T01:16:01;102957.78;;;19.49;37.04
62710;BME280;48770;51.624;5.886;2023-02-28T01:18:26;102950.56;;;19.48;37.17
62710;BME280;48770;51.624;5.886;2023-02-28T01:20:52;102960.84;;;19.47;37.13
62710;BME280;48770;51.624;5.886;2023-02-28T01:23:19;102960.00;;;19.47;36.87
62710;BME280;48770;51.624;5.886;2023-02-28T01:25:46;102954.75;;;19.45;37.13
62710;BME280;48770;51.624;5.886;2023-02-28T01:28:12;102945.59;;;19.45;37.15
62710;BME280;48770;51.624;5.886;2023-02-28T01:30:37;102952.28;;;19.44;37.03
62710;BME280;48770;51.624;5.886;2023-02-28T01:33:02;102953.41;;;19.42;36.92
62710;BME280;48770;51.624;5.886;2023-02-28T01:35:28;102955.34;;;19.42;37.08
62710;BME280;48770;51.624;5.886;2023-02-28T01:37:53;102939.81;;;19.41;36.95
62710;BME280;48770;51.624;5.886;2023-02-28T01:40:19;102943.72;;;19.40;37.11
62710;BME280;48770;51.624;5.886;2023-02-28T01:42:44;102942.88;;;19.39;37.08
62710;BME280;48770;51.624;5.886;2023-02-28T01:45:20;102942.06;;;19.39;37.02
62710;BME280;48770;51.624;5.886;2023-02-28T01:47:48;102945.13;;;19.37;36.70
62710;BME280;48770;51.624;5.886;2023-02-28T01:50:19;102931.53;;;19.36;36.95
62710;BME280;48770;51.624;5.886;2023-02-28T01:52:47;102929.59;;;19.36;37.18
62710;BME280;48770;51.624;5.886;2023-02-28T01:55:14;102930.44;;;19.37;37.18
62710;BME280;48770;51.624;5.886;2023-02-28T01:57:46;102931.53;;;19.36;37.00
62710;BME280;48770;51.624;5.886;2023-02-28T02:00:14;102927.59;;;19.13;37.33
62710;BME280;48770;51.624;5.886;2023-02-28T02:02:45;102923.59;;;19.24;37.21
62710;BME280;48770;51.624;5.886;2023-02-28T02:05:19;102926.94;;;19.26;37.01
62710;BME280;48770;51.624;5.886;2023-02-28T02:07:48;102928.59;;;19.27;37.10
62710;BME280;48770;51.624;5.886;2023-02-28T02:10:21;102931.34;;;19.27;36.95
62710;BME280;48770;51.624;5.886;2023-02-28T02:13:06;102926.94;;;19.26;36.81
62710;BME280;48770;51.624;5.886;2023-02-28T02:15:42;102922.47;;;19.25;37.23
62710;BME280;48770;51.624;5.886;2023-02-28T02:18:23;102917.22;;;19.24;37.10
62710;BME280;48770;51.624;5.886;2023-02-28T02:21:07;102918.03;;;19.24;37.10
62710;BME280;48770;51.624;5.886;2023-02-28T02:40:38;102914.78;;;19.17;37.05
62710;BME280;48770;51.624;5.886;2023-02-28T02:46:37;102914.84;;;19.12;36.91
62710;BME280;48770;51.624;5.886;2023-02-28T02:49:08;102917.31;;;19.14;37.01
62710;BME280;48770;51.624;5.886;2023-02-28T02:51:35;102925.34;;;19.15;37.08
62710;BME280;48770;51.624;5.886;2023-02-28T02:54:07;102918.97;;;19.15;37.04
62710;BME280;48770;51.624;5.886;2023-02-28T02:56:33;102919.81;;;19.15;36.99
62710;BME280;48770;51.624;5.886;2023-02-28T02:59:03;102923.41;;;19.16;36.95
62710;BME280;48770;51.624;5.886;2023-02-28T03:01:31;102928.13;;;19.15;36.69
62710;BME280;48770;51.624;5.886;2023-02-28T03:04:00;102918.97;;;19.15;36.89
62710;BME280;48770;51.624;5.886;2023-02-28T03:06:27;102918.16;;;19.14;36.92
62710;BME280;48770;51.624;5.886;2023-02-28T03:08:53;102916.19;;;19.15;36.89
62710;BME280;48770;51.624;5.886;2023-02-28T03:11:18;102915.66;;;19.13;36.90
62710;BME280;48770;51.624;5.886;2023-02-28T03:13:52;102917.31;;;19.14;37.01
62710;BME280;48770;51.624;5.886;2023-02-28T03:18:56;102909.28;;;19.12;36.94
62710;BME280;48770;51.624;5.886;2023-02-28T03:24:49;102916.84;;;19.06;36.94
62710;BME280;48770;51.624;5.886;2023-02-28T03:27:49;102917.41;;;19.03;37.02
62710;BME280;48770;51.624;5.886;2023-02-28T03:35:41;102910.75;;;19.04;37.15
62710;BME280;48770;51.624;5.886;2023-02-28T03:38:18;102912.41;;;19.05;36.93
62710;BME280;48770;51.624;5.886;2023-02-28T03:40:49;102918.25;;;19.04;37.08
62710;BME280;48770;51.624;5.886;2023-02-28T03:43:21;102919.91;;;19.05;37.01
62710;BME280;48770;51.624;5.886;2023-02-28T03:45:50;102919.91;;;19.05;36.98
62710;BME280;48770;51.624;5.886;2023-02-28T03:48:22;102919.91;;;19.05;36.94
62710;BME280;48770;51.624;5.886;2023-02-28T03:50:53;102919.06;;;19.04;37.06
62710;BME280;48770;51.624;5.886;2023-02-28T03:53:27;102923.50;;;19.05;36.79
62710;BME280;48770;51.624;5.886;2023-02-28T03:55:59;102923.19;;;19.07;36.97
62710;BME280;48770;51.624;5.886;2023-02-28T03:58:43;102912.13;;;19.07;37.03
62710;BME280;48770;51.624;5.886;2023-02-28T04:01:21;102917.66;;;19.07;36.78
62710;BME280;48770;51.624;5.886;2023-02-28T04:03:49;102909.34;;;19.07;36.62
62710;BME280;48770;51.624;5.886;2023-02-28T04:06:18;102898.78;;;19.09;36.75
62710;BME280;48770;51.624;5.886;2023-02-28T04:08:44;102907.94;;;19.09;36.58
62710;BME280;48770;51.624;5.886;2023-02-28T04:11:22;102896.31;;;19.07;36.80
62710;BME280;48770;51.624;5.886;2023-02-28T04:13:48;102897.97;;;19.08;36.62
62710;BME280;48770;51.624;5.886;2023-02-28T04:16:14;102909.06;;;19.08;36.20
62710;BME280;48770;51.624;5.886;2023-02-28T04:18:39;102905.75;;;19.06;36.64
62710;BME280;48770;51.624;5.886;2023-02-28T04:21:06;102900.50;;;19.05;36.79
62710;BME280;48770;51.624;5.886;2023-02-28T04:23:32;102906.03;;;19.05;36.93
62710;BME280;48770;51.624;5.886;2023-02-28T04:25:57;102912.41;;;19.05;36.66
62710;BME280;48770;51.624;5.886;2023-02-28T04:28:23;102919.06;;;19.04;36.47
62710;BME280;48770;51.624;5.886;2023-02-28T04:30:55;102914.66;;;19.03;36.89
62710;BME280;48770;51.624;5.886;2023-02-28T04:33:20;102908.28;;;19.03;36.74
62710;BME280;48770;51.624;5.886;2023-02-28T04:35:46;102915.22;;;19.00;37.09
62710;BME280;48770;51.624;5.886;2023-02-28T04:38:11;102914.66;;;18.98;36.96
62710;BME280;48770;51.624;5.886;2023-02-28T04:40:36;102913.84;;;18.98;36.97
62710;BME280;48770;51.624;5.886;2023-02-28T04:43:02;102913.00;;;18.97;36.88
62710;BME280;48770;51.624;5.886;2023-02-28T04:45:28;102912.19;;;18.97;36.75
62710;BME280;48770;51.624;5.886;2023-02-28T04:47:57;102913.28;;;18.96;36.70
62710;BME280;48770;51.624;5.886;2023-02-28T04:50:22;102918.84;;;18.96;36.79
62710;BME280;48770;51.624;5.886;2023-02-28T04:52:47;102920.78;;;18.95;36.80
62710;BME280;48770;51.624;5.886;2023-02-28T04:55:13;102910.81;;;18.94;36.78
62710;BME280;48770;51.624;5.886;2023-02-28T04:57:38;102917.47;;;18.93;36.84
62710;BME280;48770;51.624;5.886;2023-02-28T05:00:04;102922.19;;;18.93;36.92
62710;BME280;48770;51.624;5.886;2023-02-28T05:02:34;102920.25;;;18.93;36.70
62710;BME280;48770;51.624;5.886;2023-02-28T05:05:00;102924.97;;;18.93;36.60
62710;BME280;48770;51.624;5.886;2023-02-28T05:07:25;102928.84;;;18.92;36.93
62710;BME280;48770;51.624;5.886;2023-02-28T05:09:51;102929.97;;;18.91;36.64
62710;BME280;48770;51.624;5.886;2023-02-28T05:12:16;102934.69;;;18.90;36.79
62710;BME280;48770;51.624;5.886;2023-02-28T05:14:41;102942.19;;;18.90;36.89
62710;BME280;48770;51.624;5.886;2023-02-28T05:17:08;102944.94;;;18.90;36.75
62710;BME280;48770;51.624;5.886;2023-02-28T05:19:33;102945.25;;;18.88;36.81
62710;BME280;48770;51.624;5.886;2023-02-28T05:21:59;102937.75;;;18.89;36.99
62710;BME280;48770;51.624;5.886;2023-02-28T05:24:24;102938.88;;;18.88;36.87
62710;BME280;48770;51.624;5.886;2023-02-28T05:26:51;102935.28;;;18.87;36.69
62710;BME280;48770;51.624;5.886;2023-02-28T05:29:17;102937.22;;;18.87;36.90
62710;BME280;48770;51.624;5.886;2023-02-28T05:31:43;102940.81;;;18.87;36.78
62710;BME280;48770;51.624;5.886;2023-02-28T05:34:08;102943.59;;;18.87;36.66
62710;BME280;48770;51.624;5.886;2023-02-28T05:36:36;102943.28;;;18.89;36.61
62710;BME280;48770;51.624;5.886;2023-02-28T05:39:02;102949.97;;;18.88;36.67
62710;BME280;48770;51.624;5.886;2023-02-28T05:41:28;102946.91;;;18.89;36.67
62710;BME280;48770;51.624;5.886;2023-02-28T05:43:53;102951.31;;;18.90;36.75
62710;BME280;48770;51.624;5.886;2023-02-28T05:46:19;102947.72;;;18.90;36.70
62710;BME280;48770;51.624;5.886;2023-02-28T05:48:47;102952.69;;;18.93;36.58
62710;BME280;48770;51.624;5.886;2023-02-28T05:51:12;102956.28;;;18.93;36.70
62710;BME280;48770;51.624;5.886;2023-02-28T05:53:38;102957.41;;;18.92;36.45
62710;BME280;48770;51.624;5.886;2023-02-28T05:56:04;102964.59;;;18.93;36.19
62710;BME280;48770;51.624;5.886;2023-02-28T05:58:29;102958.22;;;18.93;36.33
62710;BME280;48770;51.624;5.886;2023-02-28T06:00:57;102952.41;;;18.94;36.56
62710;BME280;48770;51.624;5.886;2023-02-28T06:03:22;102959.59;;;18.95;36.54
62710;BME280;48770;51.624;5.886;2023-02-28T06:05:48;102954.34;;;18.94;36.57
62710;BME280;48770;51.624;5.886;2023-02-28T06:08:13;102949.91;;;18.93;36.43
62710;BME280;48770;51.624;5.886;2023-02-28T06:10:38;102947.16;;;18.93;36.40
62710;BME280;48770;51.624;5.886;2023-02-28T06:13:04;102954.91;;;18.91;36.54
62710;BME280;48770;51.624;5.886;2023-02-28T06:15:30;102962.41;;;18.90;36.67
62710;BME280;48770;51.624;5.886;2023-02-28T06:17:56;102968.78;;;18.91;36.50
62710;BME280;48770;51.624;5.886;2023-02-28T06:20:22;102961.88;;;18.88;36.53
62710;BME280;48770;51.624;5.886;2023-02-28T06:22:48;102967.13;;;18.90;36.58
62710;BME280;48770;51.624;5.886;2023-02-28T06:25:15;102968.25;;;18.89;36.47
62710;BME280;48770;51.624;5.886;2023-02-28T06:27:41;102965.75;;;18.87;36.78
62710;BME280;48770;51.624;5.886;2023-02-28T06:30:07;102975.19;;;18.86;36.38
62710;BME280;48770;51.624;5.886;2023-02-28T06:32:32;102977.13;;;18.86;36.45
62710;BME280;48770;51.624;5.886;2023-02-28T06:34:57;102973.81;;;18.84;36.46
62710;BME280;48770;51.624;5.886;2023-02-28T06:37:23;102973.00;;;18.83;36.41
62710;BME280;48770;51.624;5.886;2023-02-28T06:39:51;102972.16;;;18.83;36.77
62710;BME280;48770;51.624;5.886;2023-02-28T06:42:16;102973.28;;;18.82;36.59
62710;BME280;48770;51.624;5.886;2023-02-28T06:44:41;102978.00;;;18.81;36.68
62710;BME280;48770;51.624;5.886;2023-02-28T06:47:08;102972.75;;;18.79;36.80
62710;BME280;48770;51.624;5.886;2023-02-28T06:49:34;102973.88;;;18.78;36.81
62710;BME280;48770;51.624;5.886;2023-02-28T06:52:01;102979.41;;;18.78;36.64
62710;BME280;48770;51.624;5.886;2023-02-28T06:54:26;102980.22;;;18.79;36.83
62710;BME280;48770;51.624;5.886;2023-02-28T06:56:52;102983.00;;;18.79;36.63
62710;BME280;48770;51.624;5.886;2023-02-28T06:59:19;102981.34;;;18.78;36.70
62710;BME280;48770;51.624;5.886;2023-02-28T07:01:45;102984.94;;;18.78;36.40
62710;BME280;48770;51.624;5.886;2023-02-28T07:04:10;102988.84;;;18.77;36.62
62710;BME280;48770;51.624;5.886;2023-02-28T07:06:35;102991.31;;;18.79;36.40
62710;BME280;48770;51.624;5.886;2023-02-28T07:09:01;102991.59;;;18.77;36.58
62710;BME280;48770;51.624;5.886;2023-02-28T07:11:27;102994.38;;;18.77;36.42
62710;BME280;48770;51.624;5.886;2023-02-28T07:13:54;102997.16;;;18.77;36.29
62710;BME280;48770;51.624;5.886;2023-02-28T07:16:19;102998.81;;;18.78;36.25
62710;BME280;48770;51.624;5.886;2023-02-28T07:18:44;102990.50;;;18.78;36.32
62710;BME280;48770;51.624;5.886;2023-02-28T07:21:10;102989.66;;;18.78;36.27
62710;BME280;48770;51.624;5.886;2023-02-28T07:23:38;102994.91;;;18.79;35.82
62710;BME280;48770;51.624;5.886;2023-02-28T07:26:05;102992.69;;;18.82;35.99
62710;BME280;48770;51.624;5.886;2023-02-28T07:28:31;102986.31;;;18.81;35.82
62710;BME280;48770;51.624;5.886;2023-02-28T07:30:57;103005.44;;;18.83;35.80
62710;BME280;48770;51.624;5.886;2023-02-28T07:33:22;102999.88;;;18.83;35.60
62710;BME280;48770;51.624;5.886;2023-02-28T07:35:49;103008.75;;;18.85;35.74
62710;BME280;48770;51.624;5.886;2023-02-28T07:38:15;103008.75;;;18.85;35.51
62710;BME280;48770;51.624;5.886;2023-02-28T07:40:40;103012.06;;;18.87;35.46
62710;BME280;48770;51.624;5.886;2023-02-28T07:43:06;103014.81;;;18.87;35.39
62710;BME280;48770;51.624;5.886;2023-02-28T07:45:31;103026.75;;;18.87;35.33
62710;BME280;48770;51.624;5.886;2023-02-28T07:47:59;103024.78;;;18.88;35.33
62710;BME280;48770;51.624;5.886;2023-02-28T07:50:25;103018.44;;;18.87;35.22
62710;BME280;48770;51.624;5.886;2023-02-28T07:52:50;103017.59;;;18.87;35.42
62710;BME280;48770;51.624;5.886;2023-02-28T07:55:15;103016.78;;;18.86;35.28
62710;BME280;48770;51.624;5.886;2023-02-28T07:57:42;103018.72;;;18.86;35.41
62710;BME280;48770;51.624;5.886;2023-02-28T08:00:10;103014.81;;;18.87;35.14
62710;BME280;48770;51.624;5.886;2023-02-28T08:02:36;103017.88;;;18.85;35.37
62710;BME280;48770;51.624;5.886;2023-02-28T08:05:01;103019.84;;;18.85;35.15
62710;BME280;48770;51.624;5.886;2023-02-28T08:07:27;103009.84;;;18.84;35.28
62710;BME280;48770;51.624;5.886;2023-02-28T08:09:52;103025.38;;;18.85;35.34
62710;BME280;48770;51.624;5.886;2023-02-28T08:12:18;103018.16;;;18.84;34.89
62710;BME280;48770;51.624;5.886;2023-02-28T08:14:43;103027.31;;;18.84;35.17
62710;BME280;48770;51.624;5.886;2023-02-28T08:17:10;103028.16;;;18.85;35.13
62710;BME280;48770;51.624;5.886;2023-02-28T08:19:35;103026.50;;;18.84;35.18
62710;BME280;48770;51.624;5.886;2023-02-28T08:22:01;103023.19;;;18.82;35.29
62710;BME280;48770;51.624;5.886;2023-02-28T08:24:26;103020.41;;;18.82;35.30
62710;BME280;48770;51.624;5.886;2023-02-28T08:26:51;103019.56;;;18.81;35.03
62710;BME280;48770;51.624;5.886;2023-02-28T08:29:17;103019.56;;;18.81;34.98
62710;BME280;48770;51.624;5.886;2023-02-28T08:31:42;103007.66;;;18.81;35.08
62710;BME280;48770;51.624;5.886;2023-02-28T08:34:09;103016.81;;;18.81;35.06
62710;BME280;48770;51.624;5.886;2023-02-28T08:36:36;103018.75;;;18.81;35.05
62710;BME280;48770;51.624;5.886;2023-02-28T08:39:01;103016.25;;;18.79;34.73
62710;BME280;48770;51.624;5.886;2023-02-28T08:41:28;103031.78;;;18.80;35.17
62710;BME280;48770;51.624;5.886;2023-02-28T08:43:53;103013.50;;;18.79;35.17
62710;BME280;48770;51.624;5.886;2023-02-28T08:46:19;103019.88;;;18.79;35.08
62710;BME280;48770;51.624;5.886;2023-02-28T08:48:44;103019.88;;;18.79;34.98
62710;BME280;48770;51.624;5.886;2023-02-28T08:51:15;103029.53;;;18.82;34.82
62710;BME280;48770;51.624;5.886;2023-02-28T08:53:44;103027.88;;;18.81;34.99
62710;BME280;48770;51.624;5.886;2023-02-28T08:56:12;103027.59;;;18.83;34.98
62710;BME280;48770;51.624;5.886;2023-02-28T08:58:38;103032.03;;;18.84;34.87
62710;BME280;48770;51.624;5.886;2023-02-28T09:01:09;103020.94;;;18.84;34.98
62710;BME280;48770;51.624;5.886;2023-02-28T09:03:35;103033.97;;;18.83;35.02
62710;BME280;48770;51.624;5.886;2023-02-28T09:06:01;103022.06;;;18.83;34.95
62710;BME280;48770;51.624;5.886;2023-02-28T09:08:29;103023.72;;;18.84;34.86
62710;BME280;48770;51.624;5.886;2023-02-28T09:10:55;103030.91;;;18.85;34.82
62710;BME280;48770;51.624;5.886;2023-02-28T09:13:23;103019.84;;;18.85;34.99
62710;BME280;48770;51.624;5.886;2023-02-28T09:15:49;103023.13;;;18.87;34.79
62710;BME280;48770;51.624;5.886;2023-02-28T09:18:15;103018.97;;;18.89;34.77
62710;BME280;48770;51.624;5.886;2023-02-28T09:20:41;103018.38;;;18.92;34.76
62710;BME280;48770;51.624;5.886;2023-02-28T09:23:08;103019.22;;;18.93;35.10
62710;BME280;48770;51.624;5.886;2023-02-28T09:25:34;103022.53;;;18.95;34.99
62710;BME280;48770;51.624;5.886;2023-02-28T09:27:59;103013.09;;;18.96;35.03
62710;BME280;48770;51.624;5.886;2023-02-28T09:30:25;103015.03;;;18.95;35.28
62710;BME280;48770;51.624;5.886;2023-02-28T09:32:50;103016.69;;;18.96;35.08
62710;BME280;48770;51.624;5.886;2023-02-28T09:35:18;103014.75;;;18.97;34.97
62710;BME280;48770;51.624;5.886;2023-02-28T09:37:46;103015.88;;;18.96;35.05
62710;BME280;48770;51.624;5.886;2023-02-28T09:40:12;103011.69;;;18.98;35.30
62710;BME280;48770;51.624;5.886;2023-02-28T09:42:38;103008.91;;;18.98;35.22
62710;BME280;48770;51.624;5.886;2023-02-28T09:45:13;103008.91;;;18.98;35.01
62710;BME280;48770;51.624;5.886;2023-02-28T09:47:45;103009.75;;;18.99;35.22
62710;BME280;48770;51.624;5.886;2023-02-28T09:50:19;103017.50;;;19.02;35.08
62710;BME280;48770;51.624;5.886;2023-02-28T09:52:49;103013.09;;;19.01;35.09
62710;BME280;48770;51.624;5.886;2023-02-28T09:55:30;103014.75;;;19.02;35.34
62710;BME280;48770;51.624;5.886;2023-02-28T09:57:59;103010.03;;;19.02;35.09
62710;BME280;48770;51.624;5.886;2023-02-28T10:00:36;103010.84;;;19.03;34.99
62710;BME280;48770;51.624;5.886;2023-02-28T10:03:25;103012.50;;;19.04;35.18
62710;BME280;48770;51.624;5.886;2023-02-28T10:06:08;103005.88;;;19.00;35.09
62710;BME280;48770;51.624;5.886;2023-02-28T10:08:40;103005.88;;;19.00;35.19
62710;BME280;48770;51.624;5.886;2023-02-28T10:11:12;103005.88;;;19.00;35.30
62710;BME280;48770;51.624;5.886;2023-02-28T10:16:08;103005.03;;;18.99;35.34
62710;BME280;48770;51.624;5.886;2023-02-28T10:21:42;103005.31;;;18.98;35.40
62710;BME280;48770;51.624;5.886;2023-02-28T10:24:28;103005.91;;;18.95;35.33
62710;BME280;48770;51.624;5.886;2023-02-28T10:27:23;102995.38;;;18.92;35.49
62710;BME280;48770;51.624;5.886;2023-02-28T10:29:54;102995.38;;;18.92;35.56
62710;BME280;48770;51.624;5.886;2023-02-28T10:32:25;102992.31;;;18.93;35.40
62710;BME280;48770;51.624;5.886;2023-02-28T10:35:06;102987.91;;;18.92;35.40
62710;BME280;48770;51.624;5.886;2023-02-28T10:37:32;102998.97;;;18.92;35.65
62710;BME280;48770;51.624;5.886;2023-02-28T10:40:03;102998.97;;;18.92;35.31
62710;BME280;48770;51.624;5.886;2023-02-28T10:42:32;102991.50;;;18.93;35.47
62710;BME280;48770;51.624;5.886;2023-02-28T10:45:12;102992.63;;;18.92;35.30
62710;BME280;48770;51.624;5.886;2023-02-28T10:48:26;102988.47;;;18.89;35.41
62710;BME280;48770;51.624;5.886;2023-02-28T10:53:22;102988.47;;;18.89;35.79
62710;BME280;48770;51.624;5.886;2023-02-28T10:56:17;102983.50;;;18.86;35.61
62710;BME280;48770;51.624;5.886;2023-02-28T11:01:45;102983.75;;;18.90;35.67
62710;BME280;48770;51.624;5.886;2023-02-28T11:06:42;102977.91;;;18.91;35.67
62710;BME280;48770;51.624;5.886;2023-02-28T11:09:25;102982.63;;;18.91;35.67
62710;BME280;48770;51.624;5.886;2023-02-28T11:11:54;102972.38;;;18.91;35.84
62710;BME280;48770;51.624;5.886;2023-02-28T11:14:22;102966.53;;;18.93;35.80
62710;BME280;48770;51.624;5.886;2023-02-28T11:16:49;102969.03;;;18.94;35.83
62710;BME280;48770;51.624;5.886;2023-02-28T11:19:44;102975.97;;;18.92;35.70
62710;BME280;48770;51.624;5.886;2023-02-28T11:22:11;102969.84;;;18.95;35.84
62710;BME280;48770;51.624;5.886;2023-02-28T11:24:44;102975.13;;;18.96;35.65
62710;BME280;48770;51.624;5.886;2023-02-28T11:27:43;102970.69;;;18.95;35.75
62710;BME280;48770;51.624;5.886;2023-02-28T11:30:25;102963.72;;;18.98;36.08
62710;BME280;48770;51.624;5.886;2023-02-28T11:32:51;102959.59;;;19.00;35.87
62710;BME280;48770;51.624;5.886;2023-02-28T11:35:33;102949.03;;;19.02;36.14
62710;BME280;48770;51.624;5.886;2023-02-28T11:38:00;102949.03;;;19.02;36.09
62710;BME280;48770;51.624;5.886;2023-02-28T11:40:31;102948.44;;;19.05;36.30
62710;BME280;48770;51.624;5.886;2023-02-28T11:43:21;102951.75;;;19.07;35.83
62710;BME280;48770;51.624;5.886;2023-02-28T11:46:00;102954.25;;;19.09;36.29
62710;BME280;48770;51.624;5.886;2023-02-28T11:51:23;102958.09;;;19.13;36.26
62710;BME280;48770;51.624;5.886;2023-02-28T11:57:46;102951.13;;;19.16;36.32
62710;BME280;48770;51.624;5.886;2023-02-28T12:02:55;102950.25;;;19.20;36.18
62710;BME280;48770;51.624;5.886;2023-02-28T12:05:39;102949.38;;;19.25;36.14
62710;BME280;48770;51.624;5.886;2023-02-28T12:11:06;102941.56;;;19.32;36.08
62710;BME280;48770;51.624;5.886;2023-02-28T12:13:46;102934.03;;;19.37;36.06
62710;BME280;48770;51.624;5.886;2023-02-28T12:21:56;102931.69;;;19.50;36.04
62710;BME280;48770;51.624;5.886;2023-02-28T12:27:27;102926.13;;;19.55;36.17
62710;BME280;48770;51.624;5.886;2023-02-28T12:30:02;102926.91;;;19.60;36.14
62710;BME280;48770;51.624;5.886;2023-02-28T12:32:38;102922.59;;;19.44;36.19
62710;BME280;48770;51.624;5.886;2023-02-28T12:35:12;102908.59;;;19.59;36.07
62710;BME280;48770;51.624;5.886;2023-02-28T12:40:38;102907.88;;;19.73;36.03
62710;BME280;48770;51.624;5.886;2023-02-28T12:43:09;102904.22;;;19.77;36.10
62710;BME280;48770;51.624;5.886;2023-02-28T12:45:53;102903.66;;;19.80;35.97
62710;BME280;48770;51.624;5.886;2023-02-28T12:48:42;102906.97;;;19.82;36.05
62710;BME280;48770;51.624;5.886;2023-02-28T12:51:10;102898.56;;;19.87;36.01
62710;BME280;48770;51.624;5.886;2023-02-28T12:57:12;102892.13;;;19.92;35.92
62710;BME280;48770;51.624;5.886;2023-02-28T12:59:52;102885.16;;;19.94;36.20
62710;BME280;48770;51.624;5.886;2023-02-28T13:10:20;102878.34;;;20.06;35.67
62710;BME280;48770;51.624;5.886;2023-02-28T13:12:53;102859.44;;;20.08;35.85
62710;BME280;48770;51.624;5.886;2023-02-28T13:15:26;102859.16;;;20.09;35.78
62710;BME280;48770;51.624;5.886;2023-02-28T13:17:54;102867.44;;;19.90;36.31
62710;BME280;48770;51.624;5.886;2023-02-28T13:20:24;102858.34;;;20.03;36.32
62710;BME280;48770;51.624;5.886;2023-02-28T13:22:52;102857.19;;;20.10;35.88
62710;BME280;48770;51.624;5.886;2023-02-28T13:27:46;102865.97;;;20.17;35.81
62710;BME280;48770;51.624;5.886;2023-02-28T13:34:04;102857.94;;;20.15;35.93
62710;BME280;48770;51.624;5.886;2023-02-28T13:36:24;102843.50;;;19.94;36.44
62710;BME280;48770;51.624;5.886;2023-02-28T13:38:51;102855.53;;;20.09;36.38
62710;BME280;48770;51.624;5.886;2023-02-28T13:46:27;102851.47;;;20.20;36.14
62710;BME280;48770;51.624;5.886;2023-02-28T13:48:52;102846.44;;;20.22;35.99
62710;BME280;48770;51.624;5.886;2023-02-28T13:54:18;102847.56;;;20.21;36.30
62710;BME280;48770;51.624;5.886;2023-02-28T13:57:08;102856.75;;;20.21;36.16
62710;BME280;48770;51.624;5.886;2023-02-28T13:59:49;102855.91;;;20.21;36.14
62710;BME280;48770;51.624;5.886;2023-02-28T14:05:05;102854.78;;;20.22;36.27
62710;BME280;48770;51.624;5.886;2023-02-28T14:07:36;102844.50;;;20.22;36.06
62710;BME280;48770;51.624;5.886;2023-02-28T14:10:07;102854.47;;;20.23;36.36
62710;BME280;48770;51.624;5.886;2023-02-28T14:15:45;102844.72;;;20.26;36.23
62710;BME280;48770;51.624;5.886;2023-02-28T14:20:49;102847.69;;;20.35;36.24
62710;BME280;48770;51.624;5.886;2023-02-28T14:23:40;102848.81;;;20.33;36.14
62710;BME280;48770;51.624;5.886;2023-02-28T14:26:37;102836.25;;;20.36;36.00
62710;BME280;48770;51.624;5.886;2023-02-28T14:29:34;102832.66;;;20.36;36.07
62710;BME280;48770;51.624;5.886;2023-02-28T14:32:31;102831.22;;;20.38;36.10
62710;BME280;48770;51.624;5.886;2023-02-28T14:37:40;102826.97;;;20.46;36.09
62710;BME280;48770;51.624;5.886;2023-02-28T14:40:17;102835.50;;;20.49;36.24
62710;BME280;48770;51.624;5.886;2023-02-28T14:43:04;102836.88;;;20.52;35.97
62710;BME280;48770;51.624;5.886;2023-02-28T14:45:32;102825.97;;;20.55;35.94
62710;BME280;48770;51.624;5.886;2023-02-28T14:48:00;102825.91;;;20.60;36.08